Accueil
METAR-TAF:

METAR-TAF

Aéroports :

Nörvenich, Allemagne

Base aérienne de Nörvenich

latitude: 50-50N, longitude: 006-40E, altitude: 118 m

Observation

Le bulletin a été fait il y a 27 minutes, à 01:20 UTC
Vent 5 kt de sud/sud-est
Température 14°C
Humidité 77%
Pression 1021 hPa
Visibilité 10 km ou plus
Quelques nuages à une hauteur de 12000 ft

METAR: ETNN 170120Z 16005KT 9999 FEW120 14/10 Q1021 BLU+

Heure: 03:47 (01:47 UTC)

Prévision

Le bulletin a été fait il y a 9 heures et 38 minutes, à 16:09 UTC
Prévision valable du 16 à 17 UTC au 17 à 02 UTC
Vent 7 kt de sud
Visibilité 10 km ou plus
Quelques nuages à une hauteur de 13000 ft

TAF: ETNN 161609Z 1617/1702 17007KT 9999 NSW FEW130 BY ETGL

Observations et prévisions météorologiques de plus de 4000 aéroports (messages METAR et TAF).

Les stations disponibles sont représentées par des disques jaunes et rouges sur la carte.

Passer la souris dessus pour voir le nom de la station.

Cliquer dessus pour voir les observations et prévisions météorologiques.

Pour changer de carte: cliquez sur les boutons verts avec une croix noire pour zoomer, sur le bouton vert avec un tiret pour effectuer un zoom arrière, ou sur les flèches vertes pour les cartes adjacentes.


METAR-TAF: